createdAt,value
2022-11-28T00:00:37.697Z,21.30
2022-11-28T00:01:37.697Z,20.30
2022-11-28T00:02:37.818Z,20.40
2022-11-28T00:03:37.757Z,25.10
2022-11-28T00:04:37.766Z,24.00
2022-11-28T00:05:39.166Z,23.80
2022-11-28T00:06:37.635Z,25.60
2022-11-28T00:07:37.786Z,22.80
2022-11-28T00:08:37.623Z,25.70
2022-11-28T00:09:37.641Z,24.60
2022-11-28T00:10:37.750Z,25.70
2022-11-28T00:11:37.647Z,24.00
2022-11-28T00:12:37.613Z,23.50
2022-11-28T00:13:37.655Z,25.80
2022-11-28T00:14:37.711Z,26.90
2022-11-28T00:15:37.672Z,23.50
2022-11-28T00:16:37.626Z,26.60
2022-11-28T00:17:37.608Z,21.70
2022-11-28T00:18:37.581Z,27.20
2022-11-28T00:19:37.610Z,25.70
2022-11-28T00:20:37.590Z,29.80
2022-11-28T00:21:37.590Z,23.90
2022-11-28T00:22:37.598Z,26.60
2022-11-28T00:23:43.519Z,23.90
2022-11-28T00:24:44.010Z,25.90
2022-11-28T00:25:43.615Z,24.90
2022-11-28T00:26:43.608Z,26.40
2022-11-28T00:27:43.620Z,24.00
2022-11-28T00:28:49.476Z,25.20
2022-11-28T00:29:49.587Z,25.80
2022-11-28T00:30:49.551Z,24.10
2022-11-28T00:31:49.598Z,27.70
2022-11-28T00:32:49.541Z,26.60
2022-11-28T00:33:49.545Z,25.20
2022-11-28T00:34:49.529Z,28.20
2022-11-28T00:35:49.535Z,22.10
2022-11-28T00:36:49.511Z,27.00
2022-11-28T00:37:49.521Z,25.00
2022-11-28T00:38:49.660Z,27.90
2022-11-28T00:39:49.512Z,24.90
2022-11-28T00:40:49.503Z,23.40
2022-11-28T00:41:49.525Z,22.10
2022-11-28T00:42:49.459Z,23.80
2022-11-28T00:43:49.468Z,25.10
2022-11-28T00:44:49.601Z,26.70
2022-11-28T00:45:49.690Z,26.60
2022-11-28T00:46:49.430Z,24.10
2022-11-28T00:47:49.455Z,22.90
2022-11-28T00:48:49.417Z,23.10
2022-11-28T00:49:49.421Z,23.00
2022-11-28T00:50:49.517Z,24.40
2022-11-28T00:51:49.429Z,25.30
2022-11-28T00:52:49.400Z,22.20
2022-11-28T00:53:49.427Z,23.30
2022-11-28T00:54:49.396Z,27.30
2022-11-28T00:55:49.411Z,26.60
2022-11-28T00:56:49.519Z,21.40
2022-11-28T00:57:49.410Z,26.90
2022-11-28T00:58:49.365Z,24.90
2022-11-28T00:59:55.244Z,23.20
2022-11-28T01:00:55.397Z,29.30
2022-11-28T01:01:55.553Z,25.50
2022-11-28T01:03:00.288Z,27.70
2022-11-28T01:04:00.416Z,23.30
2022-11-28T01:05:00.342Z,28.40
2022-11-28T01:06:00.363Z,27.50
2022-11-28T01:07:00.460Z,27.70
2022-11-28T01:08:00.354Z,29.50
2022-11-28T01:09:00.334Z,31.40
2022-11-28T01:10:00.369Z,24.60
2022-11-28T01:11:00.331Z,25.30
2022-11-28T01:12:00.325Z,28.60
2022-11-28T01:13:00.415Z,30.10
2022-11-28T01:14:00.283Z,31.00
2022-11-28T01:15:00.281Z,29.00
2022-11-28T01:16:00.377Z,29.30
2022-11-28T01:17:00.233Z,25.10
2022-11-28T01:18:00.292Z,33.80
2022-11-28T01:19:00.254Z,34.40
2022-11-28T01:20:00.288Z,37.10
2022-11-28T01:21:00.275Z,35.60
2022-11-28T01:22:00.255Z,37.50
2022-11-28T01:23:00.210Z,34.10
2022-11-28T01:24:00.237Z,34.80
2022-11-28T01:25:00.337Z,32.50
2022-11-28T01:26:00.658Z,40.70
2022-11-28T01:27:00.209Z,37.90
2022-11-28T01:28:00.235Z,34.30
2022-11-28T01:29:00.193Z,40.30
2022-11-28T01:30:00.229Z,37.00
2022-11-28T01:31:00.282Z,41.70
2022-11-28T01:32:00.242Z,37.50
2022-11-28T01:33:00.134Z,36.50
2022-11-28T01:34:00.138Z,38.30
2022-11-28T01:35:00.118Z,39.00
2022-11-28T01:36:00.099Z,41.00
2022-11-28T01:37:00.193Z,43.90
2022-11-28T01:38:00.088Z,41.00
2022-11-28T01:39:00.048Z,43.50
2022-11-28T01:40:00.091Z,44.50
2022-11-28T01:41:00.056Z,44.20
2022-11-28T01:42:00.093Z,46.20
2022-11-28T01:43:00.113Z,46.30
2022-11-28T01:44:00.103Z,51.00
2022-11-28T01:45:00.068Z,44.60
2022-11-28T01:46:00.086Z,43.00
2022-11-28T01:47:00.203Z,48.60
2022-11-28T01:48:00.109Z,44.20
2022-11-28T01:49:00.070Z,49.20
2022-11-28T01:50:00.062Z,41.50
2022-11-28T01:51:00.130Z,46.70
2022-11-28T01:52:00.046Z,48.70
2022-11-28T01:53:00.029Z,47.30
2022-11-28T01:54:00.022Z,44.20
2022-11-28T01:55:00.154Z,46.00
2022-11-28T01:56:00.012Z,48.40
2022-11-28T01:56:59.978Z,50.00
2022-11-28T01:58:00.006Z,52.30
2022-11-28T01:58:59.971Z,49.60
2022-11-28T01:59:59.978Z,39.90
2022-11-28T02:01:00.054Z,49.30
2022-11-28T02:02:00.164Z,48.40
2022-11-28T02:03:00.436Z,56.60
2022-11-28T02:03:59.962Z,46.50
2022-11-28T02:04:59.926Z,47.80
2022-11-28T02:05:59.936Z,46.30
2022-11-28T02:06:59.930Z,47.80
2022-11-28T02:07:59.957Z,51.30
2022-11-28T02:08:59.885Z,40.80
2022-11-28T02:09:59.891Z,48.30
2022-11-28T02:10:59.863Z,45.70
2022-11-28T02:11:59.887Z,48.50
2022-11-28T02:12:59.971Z,46.00
2022-11-28T02:13:59.858Z,44.40
2022-11-28T02:14:59.813Z,40.20
2022-11-28T02:15:59.830Z,41.30
2022-11-28T02:16:59.777Z,38.50
2022-11-28T02:17:59.780Z,41.60
2022-11-28T02:18:59.828Z,44.10
2022-11-28T02:19:59.739Z,45.00
2022-11-28T02:20:59.722Z,42.00
2022-11-28T02:21:59.728Z,50.30
2022-11-28T02:22:59.710Z,44.90
2022-11-28T02:23:59.728Z,36.90
2022-11-28T02:25:00.075Z,39.10
2022-11-28T02:25:59.690Z,35.90
2022-11-28T02:26:59.661Z,42.50
2022-11-28T02:27:59.661Z,36.80
2022-11-28T02:28:59.631Z,42.40
2022-11-28T02:29:59.650Z,41.10
2022-11-28T02:30:59.778Z,33.30
2022-11-28T02:31:59.627Z,39.90
2022-11-28T02:32:59.573Z,42.10
2022-11-28T02:33:59.590Z,39.60
2022-11-28T02:34:59.722Z,40.10
2022-11-28T02:35:59.578Z,37.60
2022-11-28T02:36:59.553Z,36.20
2022-11-28T02:37:59.552Z,45.20
2022-11-28T02:38:59.515Z,33.70
2022-11-28T02:39:59.528Z,40.20
2022-11-28T02:40:59.508Z,38.70
2022-11-28T02:41:59.522Z,33.50
2022-11-28T02:42:59.600Z,39.00
2022-11-28T02:44:04.060Z,35.90
2022-11-28T02:44:59.487Z,37.40
2022-11-28T02:45:59.512Z,36.60
2022-11-28T02:46:59.617Z,37.50
2022-11-28T02:47:59.481Z,32.90
2022-11-28T02:48:59.598Z,32.80
2022-11-28T02:49:59.451Z,36.70
2022-11-28T02:50:59.454Z,35.10
2022-11-28T02:51:59.469Z,32.30
2022-11-28T02:52:59.440Z,35.10
2022-11-28T02:53:59.455Z,36.80
2022-11-28T02:54:59.439Z,35.70
2022-11-28T02:55:59.411Z,32.10
2022-11-28T02:56:59.424Z,36.30
2022-11-28T02:57:59.375Z,31.50
2022-11-28T02:58:59.347Z,33.30
2022-11-28T02:59:59.344Z,32.60
2022-11-28T03:00:59.383Z,32.60
2022-11-28T03:01:59.354Z,31.50
2022-11-28T03:02:59.299Z,33.50
2022-11-28T03:03:59.300Z,31.60
2022-11-28T03:04:59.264Z,30.30
2022-11-28T03:05:59.281Z,28.20
2022-11-28T03:06:59.284Z,28.40
2022-11-28T03:07:59.527Z,33.50
2022-11-28T03:08:59.230Z,28.60
2022-11-28T03:09:59.247Z,34.30
2022-11-28T03:10:59.223Z,32.10
2022-11-28T03:11:59.218Z,25.50
2022-11-28T03:12:59.237Z,30.00
2022-11-28T03:13:59.205Z,27.50
2022-11-28T03:14:59.189Z,30.60
2022-11-28T03:15:59.257Z,33.70
2022-11-28T03:16:59.185Z,29.20
2022-11-28T03:17:59.186Z,26.30
2022-11-28T03:18:59.189Z,28.30
2022-11-28T03:19:59.171Z,32.20
2022-11-28T03:20:59.162Z,28.90
2022-11-28T03:21:59.171Z,30.70
2022-11-28T03:22:59.141Z,26.40
2022-11-28T03:23:59.138Z,30.80
2022-11-28T03:24:59.279Z,31.50
2022-11-28T03:25:59.153Z,33.50
2022-11-28T03:26:59.125Z,29.30
2022-11-28T03:27:59.124Z,27.80
2022-11-28T03:28:59.108Z,26.60
2022-11-28T03:29:59.174Z,28.90
2022-11-28T03:30:59.109Z,30.30
2022-11-28T03:31:59.214Z,27.20
2022-11-28T03:32:59.052Z,24.10
2022-11-28T03:33:59.097Z,28.30
2022-11-28T03:34:59.077Z,25.50
2022-11-28T03:35:59.060Z,25.70
2022-11-28T03:36:59.039Z,25.70
2022-11-28T03:37:59.051Z,24.50
2022-11-28T03:38:59.020Z,27.30
2022-11-28T03:39:59.145Z,27.80
2022-11-28T03:40:59.100Z,26.00
2022-11-28T03:41:59.041Z,25.60
2022-11-28T03:42:59.037Z,22.80
2022-11-28T03:43:59.028Z,22.00
2022-11-28T03:44:59.038Z,23.80
2022-11-28T03:45:59.044Z,23.70
2022-11-28T03:46:59.083Z,28.60
2022-11-28T03:49:05.043Z,21.60
2022-11-28T03:50:05.004Z,24.80
2022-11-28T03:51:04.988Z,18.60
2022-11-28T03:52:04.966Z,26.20
2022-11-28T03:53:04.927Z,23.30
2022-11-28T03:54:04.941Z,23.30
2022-11-28T03:55:05.014Z,23.90
2022-11-28T03:56:04.956Z,22.70
2022-11-28T03:57:04.907Z,24.20
2022-11-28T03:58:04.911Z,21.40
2022-11-28T03:59:04.882Z,21.80
2022-11-28T04:00:04.908Z,20.00
2022-11-28T04:01:05.011Z,20.30
2022-11-28T04:02:05.013Z,18.80
2022-11-28T04:03:05.472Z,18.60
2022-11-28T04:04:09.793Z,22.90
2022-11-28T04:05:14.778Z,18.50
2022-11-28T04:06:15.020Z,23.30
2022-11-28T04:07:14.954Z,20.40
2022-11-28T04:08:14.885Z,17.70
2022-11-28T04:09:14.879Z,19.10
2022-11-28T04:10:14.867Z,17.90
2022-11-28T04:11:14.833Z,19.00
2022-11-28T04:12:14.866Z,18.50
2022-11-28T04:13:14.820Z,21.60
2022-11-28T04:14:14.838Z,18.30
2022-11-28T04:17:08.713Z,20.60
2022-11-28T04:18:08.993Z,19.60
2022-11-28T04:19:13.696Z,18.60
2022-11-28T04:20:13.773Z,20.10
2022-11-28T04:21:13.762Z,16.50
2022-11-28T04:22:13.734Z,16.80
2022-11-28T04:23:13.800Z,18.00
2022-11-28T04:24:13.731Z,16.60
2022-11-28T04:25:19.619Z,20.10
2022-11-28T04:26:19.714Z,19.20
2022-11-28T04:27:19.683Z,18.30
2022-11-28T04:28:19.806Z,21.40
2022-11-28T04:29:19.673Z,21.20
2022-11-28T04:30:19.681Z,20.30
2022-11-28T04:31:19.749Z,21.10
2022-11-28T04:32:19.670Z,19.20
2022-11-28T04:33:19.674Z,21.80
2022-11-28T04:34:19.674Z,19.80
2022-11-28T04:35:19.620Z,20.20
2022-11-28T04:36:19.637Z,24.60
2022-11-28T04:37:19.643Z,18.50
2022-11-28T04:39:23.537Z,22.90
2022-11-28T04:40:23.628Z,18.30
2022-11-28T04:41:23.594Z,24.00
2022-11-28T04:42:23.649Z,21.50
2022-11-28T04:43:23.753Z,22.50
2022-11-28T04:44:23.626Z,21.00
2022-11-28T04:45:23.579Z,18.00
2022-11-28T04:46:23.665Z,27.30
2022-11-28T04:47:23.583Z,22.80
2022-11-28T04:48:23.595Z,21.50
2022-11-28T04:49:23.622Z,19.80
2022-11-28T04:50:23.691Z,21.30
2022-11-28T04:51:23.572Z,19.80
2022-11-28T04:52:23.566Z,19.80
2022-11-28T04:53:23.552Z,23.50
2022-11-28T04:54:23.580Z,21.90
2022-11-28T04:55:23.547Z,20.10
2022-11-28T04:56:23.583Z,21.30
2022-11-28T04:57:23.532Z,21.70
2022-11-28T04:58:23.564Z,25.50
2022-11-28T04:59:23.558Z,23.90
2022-11-28T05:00:23.545Z,24.00
2022-11-28T05:01:23.588Z,23.90
2022-11-28T05:02:23.765Z,22.30
2022-11-28T05:03:23.525Z,26.90
2022-11-28T05:04:23.528Z,28.70
2022-11-28T05:05:23.543Z,28.80
2022-11-28T05:06:23.529Z,27.30
2022-11-28T05:07:23.560Z,26.80
2022-11-28T05:08:23.919Z,29.10
2022-11-28T05:09:23.530Z,29.80
2022-11-28T05:10:23.532Z,28.00
2022-11-28T05:11:23.498Z,24.50
2022-11-28T05:12:23.526Z,23.50
2022-11-28T05:13:23.500Z,22.10
2022-11-28T05:14:23.558Z,24.00
2022-11-28T05:15:23.509Z,22.20
2022-11-28T05:16:29.599Z,23.90
2022-11-28T05:17:29.499Z,24.20
2022-11-28T05:18:29.468Z,23.90
2022-11-28T05:19:29.619Z,26.00
2022-11-28T05:20:29.469Z,23.10
2022-11-28T05:21:29.478Z,25.40
2022-11-28T05:22:29.451Z,22.70
2022-11-28T05:23:33.350Z,26.10
2022-11-28T05:24:33.474Z,21.80
2022-11-28T05:25:33.439Z,22.00
2022-11-28T05:26:39.380Z,22.60
2022-11-28T05:27:39.474Z,22.70
2022-11-28T05:28:39.458Z,20.60
2022-11-28T05:29:39.887Z,19.50
2022-11-28T05:30:39.496Z,21.30
2022-11-28T05:31:39.563Z,19.20
2022-11-28T05:32:39.462Z,20.70
2022-11-28T05:33:39.463Z,21.30
2022-11-28T05:34:39.597Z,22.80
2022-11-28T05:35:44.373Z,21.20
2022-11-28T05:36:44.464Z,22.10
2022-11-28T05:37:44.418Z,20.70
2022-11-28T05:38:44.458Z,21.20
2022-11-28T05:39:44.817Z,21.40
2022-11-28T05:40:44.613Z,20.90
2022-11-28T05:41:44.463Z,19.30
2022-11-28T05:42:44.518Z,20.70
2022-11-28T05:43:44.462Z,17.80
2022-11-28T05:44:44.473Z,20.20
2022-11-28T05:45:44.542Z,18.50
2022-11-28T05:46:44.609Z,18.70
2022-11-28T05:47:44.496Z,17.90
2022-11-28T05:48:44.463Z,18.90
2022-11-28T05:49:44.701Z,18.50
2022-11-28T05:50:44.485Z,17.20
2022-11-28T05:51:44.438Z,17.10
2022-11-28T05:52:44.555Z,17.40
2022-11-28T05:53:44.444Z,17.10
2022-11-28T05:54:44.456Z,17.10
2022-11-28T05:55:44.454Z,15.30
2022-11-28T05:56:44.464Z,16.00
2022-11-28T05:57:44.580Z,17.30
2022-11-28T05:58:44.481Z,16.90
2022-11-28T05:59:44.747Z,14.80
2022-11-28T06:00:44.468Z,15.40
2022-11-28T06:01:44.505Z,15.90
2022-11-28T06:02:44.541Z,16.00
2022-11-28T06:03:44.467Z,16.80
2022-11-28T06:04:44.793Z,16.90
2022-11-28T06:05:44.553Z,17.00
2022-11-28T06:06:44.468Z,16.70
2022-11-28T06:07:44.501Z,18.30
2022-11-28T06:08:44.491Z,16.30
2022-11-28T06:09:44.705Z,17.20
2022-11-28T06:10:44.869Z,18.00
2022-11-28T06:11:44.471Z,16.60
2022-11-28T06:12:44.484Z,16.30
2022-11-28T06:13:44.479Z,15.90
2022-11-28T06:14:44.516Z,15.40
2022-11-28T06:15:44.516Z,15.40
2022-11-28T06:16:44.734Z,14.60
2022-11-28T06:17:44.503Z,14.80
2022-11-28T06:18:44.613Z,15.30
2022-11-28T06:19:45.007Z,14.80
2022-11-28T06:20:44.496Z,14.50
2022-11-28T06:21:44.463Z,12.30
2022-11-28T06:22:44.498Z,14.70
2022-11-28T06:23:44.464Z,14.50
2022-11-28T06:24:44.487Z,16.00
2022-11-28T06:25:44.443Z,14.70
2022-11-28T06:26:44.459Z,13.70
2022-11-28T06:27:44.440Z,13.00
2022-11-28T06:28:49.350Z,14.20
2022-11-28T06:29:54.321Z,13.60
2022-11-28T06:30:54.459Z,14.30
2022-11-28T06:31:54.868Z,14.70
2022-11-28T06:32:54.446Z,14.10
2022-11-28T06:35:00.362Z,13.60
2022-11-28T06:36:04.331Z,13.00
2022-11-28T06:37:04.444Z,13.30
2022-11-28T06:38:04.403Z,12.90
2022-11-28T06:39:04.593Z,13.90
2022-11-28T06:40:04.524Z,13.90
2022-11-28T06:41:10.290Z,13.40
2022-11-28T06:42:10.452Z,13.20
2022-11-28T06:43:10.398Z,14.20
2022-11-28T06:44:10.425Z,13.80
2022-11-28T06:45:10.403Z,13.50
2022-11-28T06:46:16.768Z,14.40
2022-11-28T06:47:16.392Z,15.20
2022-11-28T06:48:16.366Z,14.00
2022-11-28T06:49:16.518Z,14.20
2022-11-28T06:50:16.384Z,13.30
2022-11-28T06:51:16.375Z,13.90
2022-11-28T06:52:16.347Z,14.20
2022-11-28T06:53:16.377Z,13.60
2022-11-28T06:54:16.350Z,14.50
2022-11-28T06:55:16.374Z,14.00
2022-11-28T06:56:16.360Z,14.00
2022-11-28T06:57:16.778Z,13.40
2022-11-28T06:58:16.362Z,14.30
2022-11-28T06:59:16.375Z,13.70
2022-11-28T07:00:16.420Z,14.50
2022-11-28T07:01:16.520Z,13.70
2022-11-28T07:02:16.413Z,14.60
2022-11-28T07:03:16.375Z,14.50
2022-11-28T07:04:16.339Z,13.90
2022-11-28T07:05:16.358Z,14.40
2022-11-28T07:06:16.324Z,15.40
2022-11-28T07:07:16.769Z,15.00
2022-11-28T07:08:16.373Z,14.10
2022-11-28T07:09:16.310Z,14.90
2022-11-28T07:10:16.290Z,15.20
2022-11-28T07:11:21.376Z,15.20
2022-11-28T07:12:26.286Z,15.80
2022-11-28T07:13:26.332Z,15.90
2022-11-28T07:14:26.308Z,15.80
2022-11-28T07:15:26.310Z,14.80
2022-11-28T07:16:26.395Z,17.50
2022-11-28T07:17:26.282Z,15.00
2022-11-28T07:18:26.379Z,15.20
2022-11-28T07:19:26.302Z,15.50
2022-11-28T07:20:26.256Z,16.00
2022-11-28T07:21:26.318Z,16.40
2022-11-28T07:22:26.248Z,16.60
2022-11-28T07:23:26.244Z,17.60
2022-11-28T07:24:26.278Z,16.40
2022-11-28T07:25:26.246Z,16.80
2022-11-28T07:26:26.207Z,17.10
2022-11-28T07:27:26.220Z,15.70
2022-11-28T07:28:26.186Z,17.60
2022-11-28T07:29:26.204Z,16.90
2022-11-28T07:30:26.272Z,17.70
2022-11-28T07:31:26.208Z,17.80
2022-11-28T07:32:26.326Z,16.80
2022-11-28T07:33:26.186Z,17.20
2022-11-28T07:34:26.162Z,16.90
2022-11-28T07:35:26.182Z,18.70
2022-11-28T07:36:26.181Z,15.90
2022-11-28T07:37:31.088Z,16.60
2022-11-28T07:38:31.192Z,16.00
2022-11-28T07:39:31.149Z,16.80
2022-11-28T07:40:31.151Z,16.30
2022-11-28T07:41:31.120Z,16.60
2022-11-28T07:42:31.333Z,17.70
2022-11-28T07:43:31.126Z,18.50
2022-11-28T07:44:31.151Z,15.40
2022-11-28T07:45:53.520Z,17.20
2022-11-28T07:46:31.277Z,17.70
2022-11-28T07:47:31.297Z,21.10
2022-11-28T07:48:31.110Z,18.40
2022-11-28T07:49:31.062Z,21.80
2022-11-28T07:50:31.108Z,19.00
2022-11-28T07:51:31.064Z,18.70
2022-11-28T07:52:31.063Z,17.60
2022-11-28T07:53:31.142Z,19.10
2022-11-28T07:54:31.070Z,17.60
2022-11-28T07:55:31.013Z,18.40
2022-11-28T07:56:56.759Z,18.30
2022-11-28T07:57:35.044Z,21.40
2022-11-28T07:58:35.015Z,18.50
2022-11-28T07:59:35.004Z,19.00
2022-11-28T08:00:34.987Z,18.40
2022-11-28T08:01:35.059Z,18.40
2022-11-28T08:02:35.038Z,20.40
2022-11-28T08:03:39.903Z,18.50
2022-11-28T08:04:45.940Z,20.70
2022-11-28T08:05:39.962Z,21.50
2022-11-28T08:06:39.989Z,21.40
2022-11-28T08:07:39.999Z,19.50
2022-11-28T08:08:40.072Z,22.50
2022-11-28T08:09:40.168Z,25.80
2022-11-28T08:10:39.919Z,21.60
2022-11-28T08:11:39.894Z,20.10
2022-11-28T08:12:39.878Z,25.40
2022-11-28T08:13:39.856Z,24.90
2022-11-28T08:14:40.500Z,22.50
2022-11-28T08:15:39.831Z,22.30
2022-11-28T08:16:39.880Z,21.80
2022-11-28T08:17:39.820Z,22.20
2022-11-28T08:18:39.848Z,21.10
2022-11-28T08:19:39.803Z,24.50
2022-11-28T08:20:39.959Z,24.80
2022-11-28T08:21:39.815Z,23.90
2022-11-28T08:22:39.806Z,21.10
2022-11-28T08:23:39.771Z,22.00
2022-11-28T08:24:39.791Z,24.30
2022-11-28T08:25:39.784Z,22.60
2022-11-28T08:26:39.884Z,23.10
2022-11-28T08:27:39.749Z,21.50
2022-11-28T08:28:39.782Z,26.90
2022-11-28T08:29:39.786Z,23.10
2022-11-28T08:30:39.769Z,24.20
2022-11-28T08:31:39.723Z,22.20
2022-11-28T08:32:39.839Z,24.50
2022-11-28T08:33:39.714Z,28.50
2022-11-28T08:34:39.718Z,27.50
2022-11-28T08:35:39.694Z,28.10
2022-11-28T08:36:39.840Z,24.80
2022-11-28T08:37:39.662Z,27.80
2022-11-28T08:38:39.798Z,27.40
2022-11-28T08:39:39.649Z,28.50
2022-11-28T08:42:33.572Z,28.80
2022-11-28T08:43:33.612Z,28.10
2022-11-28T08:44:33.765Z,26.20
2022-11-28T08:45:33.639Z,25.50
2022-11-28T08:46:33.593Z,27.40
2022-11-28T08:47:33.584Z,26.10
2022-11-28T08:48:33.579Z,30.60
2022-11-28T08:49:33.574Z,29.40
2022-11-28T08:50:33.710Z,27.40
2022-11-28T08:51:33.559Z,30.70
2022-11-28T08:52:33.560Z,28.50
2022-11-28T08:53:33.543Z,28.30
2022-11-28T08:54:33.556Z,25.20
2022-11-28T08:55:36.596Z,27.70
2022-11-28T08:56:39.441Z,25.10
2022-11-28T08:57:39.566Z,27.00
2022-11-28T08:58:39.516Z,23.40
2022-11-28T08:59:44.913Z,25.60
2022-11-28T09:00:44.530Z,22.20
2022-11-28T09:01:44.719Z,26.60
2022-11-28T09:02:50.411Z,24.70
2022-11-28T09:03:50.596Z,26.30
2022-11-28T09:04:50.485Z,27.50
2022-11-28T09:05:50.481Z,27.20
2022-11-28T09:06:50.575Z,25.60
2022-11-28T09:07:50.599Z,24.50
2022-11-28T09:08:50.418Z,23.90
2022-11-28T09:09:50.468Z,24.70
2022-11-28T09:10:50.406Z,26.80
2022-11-28T09:11:50.450Z,24.90
2022-11-28T09:12:50.480Z,23.30
2022-11-28T09:13:50.411Z,25.30
2022-11-28T09:14:50.363Z,25.00
2022-11-28T09:15:55.276Z,24.30
2022-11-28T09:17:00.483Z,24.50
2022-11-28T09:18:01.458Z,24.30
2022-11-28T09:19:01.362Z,23.80
2022-11-28T09:20:01.366Z,23.20
2022-11-28T09:21:07.226Z,25.00
2022-11-28T09:22:07.353Z,26.80
2022-11-28T09:23:07.424Z,27.60
2022-11-28T09:24:07.353Z,26.40
2022-11-28T09:25:07.318Z,24.60
2022-11-28T09:26:07.324Z,24.00
2022-11-28T09:27:07.286Z,25.00
2022-11-28T09:28:07.322Z,22.70
2022-11-28T09:29:07.381Z,24.70
2022-11-28T09:30:07.293Z,23.60
2022-11-28T09:31:07.309Z,23.20
2022-11-28T09:32:07.290Z,22.50
2022-11-28T09:33:07.292Z,22.00
2022-11-28T09:34:07.279Z,20.30
2022-11-28T09:35:07.367Z,19.90
2022-11-28T09:36:07.289Z,23.90
2022-11-28T09:37:07.273Z,22.50
2022-11-28T09:38:07.262Z,21.90
2022-11-28T09:39:07.386Z,18.90
2022-11-28T09:40:13.963Z,18.50
2022-11-28T09:41:07.292Z,20.80
2022-11-28T09:42:07.301Z,23.30
2022-11-28T09:43:07.246Z,22.00
2022-11-28T09:44:07.288Z,22.30
2022-11-28T09:45:07.250Z,23.50
2022-11-28T09:46:07.367Z,20.60
2022-11-28T09:47:07.383Z,20.70
2022-11-28T09:48:07.268Z,18.00
2022-11-28T09:49:07.245Z,17.50
2022-11-28T09:50:07.283Z,20.20
2022-11-28T09:51:07.260Z,20.60
2022-11-28T09:52:07.358Z,18.10
2022-11-28T09:53:07.365Z,21.30
2022-11-28T09:54:07.271Z,18.30
2022-11-28T09:55:07.280Z,20.40
2022-11-28T09:56:07.269Z,18.60
2022-11-28T09:57:07.264Z,17.70
2022-11-28T09:58:07.271Z,18.90
2022-11-28T09:59:07.352Z,17.90
2022-11-28T10:00:07.279Z,18.00
2022-11-28T10:02:11.314Z,18.40
2022-11-28T10:03:11.324Z,17.80
2022-11-28T10:04:11.525Z,17.90
2022-11-28T10:05:11.441Z,17.90
2022-11-28T10:06:11.248Z,21.10
2022-11-28T10:07:16.225Z,19.30
2022-11-28T10:08:22.195Z,16.40
2022-11-28T10:09:22.384Z,16.60
2022-11-28T10:10:22.245Z,17.20
2022-11-28T10:11:22.298Z,16.20
2022-11-28T10:12:22.360Z,17.00
2022-11-28T10:13:32.651Z,15.80
2022-11-28T10:14:27.386Z,16.30
2022-11-28T10:15:27.229Z,18.30
2022-11-28T10:16:32.227Z,16.80
2022-11-28T10:17:36.142Z,16.20
2022-11-28T10:18:36.287Z,15.70
2022-11-28T10:19:53.713Z,14.70
2022-11-28T10:20:36.263Z,16.30
2022-11-28T10:21:36.237Z,14.20
2022-11-28T10:22:36.294Z,15.40
2022-11-28T10:23:36.252Z,15.60
2022-11-28T10:24:36.367Z,15.60
2022-11-28T10:25:36.263Z,15.30
2022-11-28T10:26:36.289Z,16.30
2022-11-28T10:27:36.253Z,15.30
2022-11-28T10:28:42.181Z,17.00
2022-11-28T10:29:48.323Z,15.00
2022-11-28T10:30:48.356Z,14.70
2022-11-28T10:31:48.265Z,18.00
2022-11-28T10:32:48.437Z,15.30
2022-11-28T10:33:48.276Z,15.30
2022-11-28T10:34:48.302Z,16.50
2022-11-28T10:35:48.382Z,14.40
2022-11-28T10:36:48.302Z,14.20
2022-11-28T10:37:48.290Z,15.00
2022-11-28T10:38:48.309Z,14.10
2022-11-28T10:39:48.289Z,14.20
2022-11-28T10:40:48.325Z,14.20
2022-11-28T10:41:48.451Z,14.60
2022-11-28T10:42:48.332Z,15.10
2022-11-28T10:43:48.427Z,13.80
2022-11-28T10:44:48.330Z,15.80
2022-11-28T10:45:48.408Z,14.90
2022-11-28T10:46:48.330Z,14.50
2022-11-28T10:47:48.325Z,14.50
2022-11-28T10:48:48.319Z,14.70
2022-11-28T10:49:48.318Z,14.90
2022-11-28T10:50:48.309Z,14.20
2022-11-28T10:51:48.285Z,14.20
2022-11-28T10:52:48.286Z,13.70
2022-11-28T10:53:48.273Z,13.70
2022-11-28T10:54:48.304Z,15.90
2022-11-28T10:55:48.250Z,13.80
2022-11-28T10:56:48.629Z,13.60
2022-11-28T10:57:48.253Z,14.40
2022-11-28T10:58:48.261Z,13.50
2022-11-28T10:59:48.333Z,14.40
2022-11-28T11:00:48.254Z,13.90
2022-11-28T11:01:50.377Z,18.60
2022-11-28T11:02:48.249Z,15.60
2022-11-28T11:03:48.232Z,17.50
2022-11-28T11:04:48.304Z,15.80
2022-11-28T11:05:48.358Z,18.20
2022-11-28T11:07:07.529Z,18.60
2022-11-28T11:07:48.309Z,19.60
2022-11-28T11:08:48.209Z,19.70
2022-11-28T11:09:48.205Z,18.80
2022-11-28T11:10:48.244Z,18.90
2022-11-28T11:11:48.344Z,20.80
2022-11-28T11:12:48.248Z,21.90
2022-11-28T11:13:48.225Z,19.60
2022-11-28T11:14:48.231Z,21.10
2022-11-28T11:15:48.312Z,22.40
2022-11-28T11:16:48.385Z,19.70
2022-11-28T11:17:48.246Z,21.30
2022-11-28T11:18:48.262Z,18.50
2022-11-28T11:19:48.653Z,18.20
2022-11-28T11:20:48.254Z,22.60
2022-11-28T11:21:48.219Z,22.60
2022-11-28T11:22:48.553Z,22.60
2022-11-28T11:23:53.157Z,23.90
2022-11-28T11:24:53.263Z,23.60
2022-11-28T11:25:53.245Z,27.20
2022-11-28T11:26:53.392Z,24.00
2022-11-28T11:27:53.392Z,23.30
2022-11-28T11:28:53.268Z,21.70
2022-11-28T11:29:53.672Z,25.50
2022-11-28T11:30:59.259Z,24.10
2022-11-28T11:32:04.206Z,26.50
2022-11-28T11:33:04.342Z,26.40
2022-11-28T11:34:04.261Z,28.20
2022-11-28T11:35:04.277Z,30.50
2022-11-28T11:36:04.276Z,30.20
2022-11-28T11:37:04.416Z,29.90
2022-11-28T11:38:04.300Z,28.60
2022-11-28T11:39:04.439Z,30.40
2022-11-28T11:40:04.311Z,30.90
2022-11-28T11:41:04.325Z,31.90
2022-11-28T11:42:04.307Z,28.60
2022-11-28T11:43:04.355Z,29.70
2022-11-28T11:44:04.344Z,33.20
2022-11-28T11:45:04.518Z,37.10
2022-11-28T11:46:04.362Z,36.80
2022-11-28T11:47:04.359Z,33.40
2022-11-28T11:48:04.343Z,34.80
2022-11-28T11:49:04.367Z,38.80
2022-11-28T11:50:04.347Z,36.70
2022-11-28T11:51:04.482Z,40.20
2022-11-28T11:52:04.346Z,35.50
2022-11-28T11:53:04.367Z,38.40
2022-11-28T11:54:04.373Z,44.00
2022-11-28T11:55:04.384Z,39.30
2022-11-28T11:56:04.435Z,42.20
2022-11-28T11:57:32.074Z,41.00
2022-11-28T11:58:09.524Z,40.80
2022-11-28T11:59:09.438Z,39.90
2022-11-28T12:00:09.441Z,44.20
2022-11-28T12:01:09.424Z,47.20
2022-11-28T12:02:09.510Z,52.00
2022-11-28T12:03:09.779Z,48.30
2022-11-28T12:04:37.102Z,59.50
2022-11-28T12:05:09.449Z,48.70
2022-11-28T12:06:14.668Z,53.90
2022-11-28T12:07:09.468Z,53.40
2022-11-28T12:08:09.505Z,49.70
2022-11-28T12:09:09.644Z,55.20
2022-11-28T12:10:13.471Z,49.00
2022-11-28T12:11:13.549Z,56.50
2022-11-28T12:12:13.535Z,51.00
2022-11-28T12:13:13.591Z,53.90
2022-11-28T12:14:13.572Z,53.80
2022-11-28T12:15:13.610Z,55.10
2022-11-28T12:16:13.648Z,59.40
2022-11-28T12:17:40.509Z,61.00
2022-11-28T12:19:13.822Z,58.50
2022-11-28T12:20:18.528Z,53.60
2022-11-28T12:21:18.623Z,54.00
2022-11-28T12:22:24.506Z,62.00
2022-11-28T12:23:24.651Z,57.50
2022-11-28T12:24:24.710Z,60.40
2022-11-28T12:25:24.646Z,64.70
2022-11-28T12:26:24.728Z,54.00
2022-11-28T12:27:24.667Z,56.20
2022-11-28T12:28:24.618Z,57.40
2022-11-28T12:29:24.816Z,60.30
2022-11-28T12:30:24.758Z,70.10
2022-11-28T12:31:30.972Z,68.70
2022-11-28T12:32:30.728Z,62.00
2022-11-28T12:33:30.692Z,57.90
2022-11-28T12:34:30.727Z,63.50
2022-11-28T12:35:31.640Z,57.70
2022-11-28T12:36:36.618Z,58.30
2022-11-28T12:38:02.739Z,61.90
2022-11-28T12:38:36.710Z,64.90
2022-11-28T12:39:36.868Z,55.60
2022-11-28T12:40:36.851Z,57.80
2022-11-28T12:41:36.745Z,55.90
2022-11-28T12:42:36.743Z,63.50
2022-11-28T12:43:36.761Z,61.30
2022-11-28T12:44:36.774Z,66.70
2022-11-28T12:45:36.802Z,70.20
2022-11-28T12:46:36.873Z,63.10
2022-11-28T12:47:36.815Z,71.30
2022-11-28T12:48:36.799Z,62.50
2022-11-28T12:49:36.830Z,63.00
2022-11-28T12:50:36.863Z,61.60
2022-11-28T12:51:36.953Z,63.50
2022-11-28T12:52:36.855Z,58.90
2022-11-28T12:53:36.871Z,57.90
2022-11-28T12:54:36.891Z,61.70
2022-11-28T12:55:36.904Z,70.70
2022-11-28T12:56:36.879Z,53.90
2022-11-28T12:57:41.997Z,63.50
2022-11-28T12:58:41.915Z,58.20
2022-11-28T12:59:42.503Z,62.00
2022-11-28T13:00:47.940Z,59.10
2022-11-28T13:01:52.977Z,62.00
2022-11-28T13:02:53.131Z,63.40
2022-11-28T13:03:52.934Z,58.30
2022-11-28T13:04:52.969Z,62.30
2022-11-28T13:05:52.944Z,63.10